Time;durP1;ratioP1;P1;durP2;ratioP2;P2;SDS_P1;SDS_P2;PMS_P1;PMS_P2;Temp;Humidity;BMP_temperature;BMP_pressure;BME280_temperature;BME280_humidity;BME280_pressure;Samples;Min_cycle;Max_cycle;Signal;HPM_P1;HPM_P2
2023/05/13 00:01:11;;;;;;;4.17;3.03;;;16.60;55.30;;;;;;5027601;28;20298;-71
2023/05/13 00:03:36;;;;;;;4.70;3.33;;;16.50;55.70;;;;;;5027741;28;20282;-72
2023/05/13 00:06:02;;;;;;;4.90;3.03;;;16.50;55.60;;;;;;5028308;28;20202;-71
2023/05/13 00:08:27;;;;;;;5.97;3.90;;;16.50;55.80;;;;;;5028756;28;20234;-74
2023/05/13 00:10:53;;;;;;;3.87;3.57;;;16.40;56.30;;;;;;5028162;28;20258;-69
2023/05/13 00:13:18;;;;;;;5.60;4.23;;;16.40;56.60;;;;;;5031179;28;20278;-69
2023/05/13 00:15:44;;;;;;;3.57;3.23;;;16.40;56.40;;;;;;5024720;28;20546;-69
2023/05/13 00:18:09;;;;;;;4.13;3.67;;;16.30;56.30;;;;;;5029351;28;20258;-73
2023/05/13 00:20:34;;;;;;;5.70;4.43;;;16.30;56.70;;;;;;5027092;28;20291;-70
2023/05/13 00:23:02;;;;;;;4.23;3.77;;;16.40;57.70;;;;;;5028945;28;20199;-69
2023/05/13 00:25:27;;;;;;;6.33;3.93;;;16.40;56.70;;;;;;5027578;28;20192;-68
2023/05/13 00:27:53;;;;;;;6.67;3.40;;;16.30;57.40;;;;;;5026387;28;20258;-70
2023/05/13 00:30:19;;;;;;;4.00;3.60;;;16.30;57.00;;;;;;5029167;28;20250;-70
2023/05/13 00:32:45;;;;;;;5.43;4.27;;;16.30;57.20;;;;;;5029015;28;20249;-69
2023/05/13 00:35:11;;;;;;;5.13;3.40;;;16.30;56.70;;;;;;5028611;28;20611;-68
2023/05/13 00:37:37;;;;;;;8.33;3.40;;;16.30;57.00;;;;;;5027545;28;20336;-69
2023/05/13 00:40:03;;;;;;;3.77;3.13;;;16.20;57.70;;;;;;5028721;28;20326;-69
2023/05/13 00:42:29;;;;;;;5.93;3.77;;;16.10;57.80;;;;;;5025776;28;20218;-69
2023/05/13 00:44:54;;;;;;;4.47;3.30;;;16.10;57.80;;;;;;5028325;28;20924;-70
2023/05/13 00:47:20;;;;;;;4.53;3.80;;;16.10;57.80;;;;;;5028057;28;20209;-75
2023/05/13 00:49:46;;;;;;;5.77;3.10;;;16.10;58.00;;;;;;5028284;28;20193;-74
2023/05/13 00:52:11;;;;;;;3.93;3.23;;;16.00;58.30;;;;;;5021531;28;20196;-74
2023/05/13 00:54:37;;;;;;;4.13;3.20;;;16.00;59.90;;;;;;5030194;28;20198;-74
2023/05/13 00:57:04;;;;;;;4.23;3.40;;;16.00;59.50;;;;;;5027140;28;20249;-74
2023/05/13 00:59:30;;;;;;;5.03;3.83;;;15.80;58.90;;;;;;5027662;28;20282;-74
2023/05/13 01:02:11;;;;;;;7.13;3.53;;;15.80;59.50;;;;;;5027650;28;20210;-75
2023/05/13 01:04:50;;;;;;;4.23;3.77;;;15.90;60.70;;;;;;5020708;28;20198;-75
2023/05/13 01:07:22;;;;;;;6.10;3.30;;;15.80;61.10;;;;;;5026202;28;20305;-74
2023/05/13 01:10:04;;;;;;;4.73;4.23;;;15.80;60.10;;;;;;5027106;28;20204;-74
2023/05/13 01:12:33;;;;;;;4.73;3.60;;;15.80;60.30;;;;;;5025993;28;20195;-74
2023/05/13 01:15:05;;;;;;;5.77;3.83;;;15.80;62.40;;;;;;5026219;28;20604;-74
2023/05/13 01:17:51;;;;;;;5.27;3.73;;;15.90;59.70;;;;;;5027891;28;20286;-74
2023/05/13 01:20:22;;;;;;;7.83;3.70;;;15.80;58.90;;;;;;5023312;28;20658;-74
2023/05/13 01:22:47;;;;;;;6.97;4.00;;;15.90;59.00;;;;;;5027273;28;20204;-74
2023/05/13 01:25:13;;;;;;;6.97;4.30;;;15.90;60.40;;;;;;5023980;28;20212;-74
2023/05/13 01:27:39;;;;;;;5.10;3.80;;;15.80;59.80;;;;;;5022875;28;20226;-73
2023/05/13 01:30:06;;;;;;;9.00;3.47;;;15.90;60.60;;;;;;5029212;28;20240;-74
2023/05/13 01:32:32;;;;;;;9.50;4.43;;;15.80;59.40;;;;;;5024670;28;20566;-75
2023/05/13 01:34:59;;;;;;;6.67;3.73;;;15.80;59.00;;;;;;5027894;28;20512;-74
2023/05/13 01:37:25;;;;;;;4.13;3.73;;;15.90;59.10;;;;;;5025495;28;20197;-74
2023/05/13 01:39:50;;;;;;;5.57;3.80;;;15.80;59.00;;;;;;5025056;28;20203;-75
2023/05/13 01:42:16;;;;;;;5.33;4.40;;;15.80;58.90;;;;;;5026865;28;20205;-74
2023/05/13 01:44:41;;;;;;;4.47;3.93;;;15.80;58.80;;;;;;5027134;28;20196;-73
2023/05/13 01:47:07;;;;;;;5.63;3.77;;;15.70;58.70;;;;;;5026591;28;20212;-73
2023/05/13 01:49:32;;;;;;;5.67;3.90;;;15.80;59.10;;;;;;5026936;28;20196;-76
2023/05/13 01:51:58;;;;;;;4.93;3.17;;;15.70;59.20;;;;;;5025552;28;20338;-75
2023/05/13 01:54:24;;;;;;;7.50;4.37;;;15.70;59.30;;;;;;5017960;28;20199;-73
2023/05/13 01:56:50;;;;;;;4.10;3.70;;;15.60;59.10;;;;;;5027744;28;20227;-73
2023/05/13 01:59:15;;;;;;;6.50;3.73;;;15.70;59.80;;;;;;5027227;28;20229;-73
2023/05/13 02:01:41;;;;;;;5.03;3.50;;;15.60;59.80;;;;;;5023103;28;20577;-74
2023/05/13 02:04:06;;;;;;;5.43;4.20;;;15.60;59.50;;;;;;5022397;28;20214;-73
2023/05/13 02:06:32;;;;;;;5.33;3.90;;;15.60;60.20;;;;;;5026657;28;20298;-74
2023/05/13 02:08:57;;;;;;;4.77;3.77;;;15.60;61.50;;;;;;5026545;28;20691;-73
2023/05/13 02:11:23;;;;;;;5.47;3.83;;;15.50;64.10;;;;;;5026714;28;20191;-73
2023/05/13 02:13:49;;;;;;;5.10;3.57;;;15.50;61.30;;;;;;5026383;28;20203;-73
2023/05/13 02:16:16;;;;;;;4.80;3.90;;;15.40;60.50;;;;;;5024710;28;20206;-74
2023/05/13 02:18:42;;;;;;;4.77;3.60;;;15.50;60.50;;;;;;5026844;28;20203;-74
2023/05/13 02:21:08;;;;;;;5.10;3.80;;;15.50;61.60;;;;;;5027152;28;20199;-73
2023/05/13 02:23:33;;;;;;;5.63;3.60;;;15.40;61.00;;;;;;5024842;28;20199;-74
2023/05/13 02:25:59;;;;;;;4.63;3.80;;;15.50;61.40;;;;;;5025803;28;20199;-74
2023/05/13 02:28:25;;;;;;;5.53;3.77;;;15.40;60.60;;;;;;5024601;28;20228;-74
2023/05/13 02:30:50;;;;;;;4.63;3.73;;;15.40;60.80;;;;;;5026941;28;20285;-74
2023/05/13 02:33:16;;;;;;;7.07;4.23;;;15.50;60.40;;;;;;5022269;28;20271;-72
2023/05/13 02:35:41;;;;;;;7.83;4.00;;;15.50;62.90;;;;;;5027183;28;20195;-72
2023/05/13 02:38:10;;;;;;;5.40;3.40;;;15.40;59.90;;;;;;5024087;28;20203;-72
2023/05/13 02:40:36;;;;;;;5.93;4.23;;;15.30;60.00;;;;;;5026284;28;20248;-73
2023/05/13 02:43:02;;;;;;;4.67;3.80;;;15.20;60.40;;;;;;5024656;28;20214;-72
2023/05/13 02:45:27;;;;;;;6.10;4.23;;;15.20;60.90;;;;;;5030662;28;20199;-74
2023/05/13 02:47:52;;;;;;;6.07;3.63;;;15.30;60.50;;;;;;5023206;28;20219;-73
2023/05/13 02:50:18;;;;;;;5.40;3.70;;;15.20;60.40;;;;;;5028180;28;20612;-74
2023/05/13 02:52:43;;;;;;;4.20;3.70;;;15.20;60.70;;;;;;5031009;28;20203;-77
2023/05/13 02:55:09;;;;;;;3.80;3.47;;;15.10;60.70;;;;;;5028403;28;20610;-74
2023/05/13 02:57:36;;;;;;;6.17;4.10;;;15.10;61.90;;;;;;5029872;28;20248;-74
2023/05/13 03:00:04;;;;;;;5.83;4.10;;;15.10;61.30;;;;;;5036536;28;20207;-74
2023/05/13 03:02:31;;;;;;;4.70;3.97;;;15.10;60.80;;;;;;5039975;28;20202;-76
2023/05/13 03:04:57;;;;;;;7.60;4.47;;;15.20;60.70;;;;;;5035293;28;20233;-76
2023/05/13 03:07:23;;;;;;;6.70;4.00;;;15.10;60.90;;;;;;5036475;28;20685;-75
2023/05/13 03:09:49;;;;;;;4.83;4.10;;;15.00;61.00;;;;;;5040225;28;20191;-75
2023/05/13 03:12:15;;;;;;;4.43;4.03;;;15.00;60.70;;;;;;5039705;28;20256;-75
2023/05/13 03:14:41;;;;;;;6.37;4.40;;;14.90;61.40;;;;;;5036575;28;20901;-75
2023/05/13 03:17:07;;;;;;;5.13;3.73;;;15.00;61.10;;;;;;5039934;28;20213;-74
2023/05/13 03:19:34;;;;;;;9.13;4.50;;;15.00;60.80;;;;;;5029891;28;20691;-73
2023/05/13 03:22:00;;;;;;;5.07;3.60;;;15.10;60.90;;;;;;5039123;28;20211;-73
2023/05/13 03:24:25;;;;;;;6.40;4.30;;;15.10;60.30;;;;;;5039715;28;20209;-73
2023/05/13 03:26:51;;;;;;;4.97;4.53;;;15.00;60.40;;;;;;5039712;28;20237;-73
2023/05/13 03:29:16;;;;;;;5.40;3.63;;;15.00;60.80;;;;;;5038690;28;20617;-72
2023/05/13 03:31:42;;;;;;;7.33;3.87;;;15.00;60.80;;;;;;5036338;28;20244;-72
2023/05/13 03:34:07;;;;;;;4.53;3.47;;;14.90;61.20;;;;;;5038785;28;20721;-73
2023/05/13 03:36:33;;;;;;;4.73;4.00;;;14.80;61.40;;;;;;5038170;28;20195;-73
2023/05/13 03:38:58;;;;;;;6.57;4.10;;;14.80;61.80;;;;;;5038075;28;20256;-72
2023/05/13 03:41:24;;;;;;;5.67;4.27;;;14.80;60.90;;;;;;5026418;28;20199;-73
2023/05/13 03:43:50;;;;;;;6.17;4.40;;;14.90;61.20;;;;;;5029401;28;20227;-74
2023/05/13 03:46:15;;;;;;;3.97;3.57;;;14.90;62.50;;;;;;5028386;28;20298;-74
2023/05/13 03:48:41;;;;;;;5.27;4.60;;;14.80;62.20;;;;;;5029668;28;20204;-73
2023/05/13 03:51:06;;;;;;;6.03;4.67;;;14.90;62.80;;;;;;5025061;28;20274;-73
2023/05/13 03:53:32;;;;;;;4.87;3.70;;;14.80;61.60;;;;;;5028070;28;20218;-74
2023/05/13 03:55:57;;;;;;;4.00;3.60;;;14.80;61.40;;;;;;5027022;28;20215;-72
2023/05/13 03:58:23;;;;;;;4.83;4.33;;;14.90;61.50;;;;;;5029032;28;21066;-72
2023/05/13 04:00:48;;;;;;;4.87;4.30;;;14.80;62.40;;;;;;5028221;28;20462;-72
2023/05/13 04:03:15;;;;;;;6.33;4.23;;;14.80;61.80;;;;;;5026888;28;20624;-74
2023/05/13 04:05:41;;;;;;;5.43;4.13;;;14.80;62.00;;;;;;5029321;28;20673;-74
2023/05/13 04:08:07;;;;;;;4.33;3.60;;;14.80;61.70;;;;;;5027686;28;20219;-73
2023/05/13 04:10:33;;;;;;;6.67;4.03;;;14.80;61.20;;;;;;5029248;28;21108;-73
2023/05/13 04:12:58;;;;;;;9.37;4.87;;;14.80;62.00;;;;;;5028976;28;20709;-73
2023/05/13 04:15:24;;;;;;;6.07;4.40;;;14.80;61.60;;;;;;5029429;28;20203;-72
2023/05/13 04:17:51;;;;;;;6.87;3.63;;;14.70;62.60;;;;;;5026023;28;20214;-73
2023/05/13 04:20:16;;;;;;;6.30;4.17;;;14.80;61.60;;;;;;5027389;28;20208;-73
2023/05/13 04:22:42;;;;;;;4.83;4.33;;;14.60;61.10;;;;;;5030516;28;20261;-73
2023/05/13 04:25:08;;;;;;;4.47;3.60;;;14.60;62.40;;;;;;5024782;28;20212;-73
2023/05/13 04:27:33;;;;;;;6.03;4.33;;;14.60;61.30;;;;;;5026455;28;20219;-73
2023/05/13 04:29:59;;;;;;;7.67;4.40;;;14.50;61.50;;;;;;5021706;28;20238;-74
2023/05/13 04:32:24;;;;;;;4.43;4.00;;;14.40;61.90;;;;;;5024232;28;20199;-73
2023/05/13 04:34:51;;;;;;;5.30;4.37;;;14.40;62.20;;;;;;5027614;28;20200;-73
2023/05/13 04:37:17;;;;;;;6.70;4.03;;;14.40;61.70;;;;;;5027253;28;20271;-73
2023/05/13 04:39:45;;;;;;;5.50;4.13;;;14.40;61.80;;;;;;5027750;28;20203;-73
2023/05/13 04:42:11;;;;;;;6.63;4.00;;;14.40;61.80;;;;;;5024898;28;20203;-74
2023/05/13 04:44:36;;;;;;;7.93;4.80;;;14.50;61.80;;;;;;5026098;28;20195;-73
2023/05/13 04:47:02;;;;;;;5.30;4.03;;;14.50;61.90;;;;;;5026363;28;20268;-73
2023/05/13 04:49:27;;;;;;;8.17;4.93;;;14.50;62.80;;;;;;5026722;28;20191;-74
2023/05/13 04:51:53;;;;;;;6.10;4.40;;;14.60;61.30;;;;;;5026686;28;20681;-74
2023/05/13 04:54:19;;;;;;;6.60;4.33;;;14.60;60.90;;;;;;5027963;28;20198;-76
2023/05/13 04:56:44;;;;;;;4.50;4.10;;;14.60;61.80;;;;;;5022360;28;20206;-74
2023/05/13 04:59:10;;;;;;;3.97;3.63;;;14.70;61.00;;;;;;5021837;28;20210;-74
2023/05/13 05:01:35;;;;;;;5.23;4.10;;;14.70;60.50;;;;;;5025536;28;20467;-75
2023/05/13 05:04:01;;;;;;;5.13;4.37;;;14.70;60.30;;;;;;5026218;28;20218;-74
2023/05/13 05:06:27;;;;;;;4.87;3.67;;;14.70;60.40;;;;;;5027346;28;20215;-75
2023/05/13 05:08:52;;;;;;;7.17;4.10;;;14.80;60.20;;;;;;5023952;28;20203;-73
2023/05/13 05:11:18;;;;;;;8.27;3.97;;;14.80;60.10;;;;;;5024696;28;20200;-73
2023/05/13 05:13:43;;;;;;;4.90;3.87;;;14.90;60.10;;;;;;5024345;28;20848;-74
2023/05/13 05:16:09;;;;;;;11.33;3.93;;;14.90;60.20;;;;;;5029221;28;20217;-74
2023/05/13 05:18:35;;;;;;;6.67;4.30;;;15.00;59.80;;;;;;5023018;28;20771;-75
2023/05/13 05:21:01;;;;;;;7.80;4.00;;;15.00;60.60;;;;;;5023954;28;21000;-75
2023/05/13 05:23:26;;;;;;;4.83;3.67;;;15.00;59.50;;;;;;5026409;28;20202;-75
2023/05/13 05:25:52;;;;;;;3.90;3.50;;;15.10;59.70;;;;;;5022857;28;20253;-73
2023/05/13 05:28:17;;;;;;;7.80;7.10;;;15.10;59.40;;;;;;4988299;28;1101750;-74
2023/05/13 05:30:46;;;;;;;6.50;4.03;;;15.10;59.10;;;;;;5026125;28;20198;-73
2023/05/13 05:33:12;;;;;;;5.77;3.50;;;15.10;59.10;;;;;;5024832;28;20218;-73
2023/05/13 05:35:37;;;;;;;5.83;4.00;;;15.20;58.50;;;;;;5025188;28;20207;-73
2023/05/13 05:38:03;;;;;;;5.30;3.90;;;15.20;58.40;;;;;;5026560;28;20198;-73
2023/05/13 05:40:30;;;;;;;8.50;3.80;;;15.30;58.60;;;;;;5026597;28;20203;-74
2023/05/13 05:42:56;;;;;;;5.93;3.50;;;15.40;58.60;;;;;;5025805;28;20826;-74
2023/05/13 05:45:21;;;;;;;7.47;4.00;;;15.40;59.70;;;;;;5026401;28;20195;-73
2023/05/13 05:47:47;;;;;;;4.20;3.13;;;15.50;58.80;;;;;;5024675;28;20214;-73
2023/05/13 05:50:12;;;;;;;4.33;3.23;;;15.50;58.10;;;;;;5026591;28;20206;-74
2023/05/13 05:52:38;;;;;;;4.60;3.67;;;15.60;59.00;;;;;;5029224;28;20219;-74
2023/05/13 05:55:05;;;;;;;5.73;3.10;;;15.70;58.10;;;;;;5024946;28;20191;-74
2023/05/13 05:57:31;;;;;;;4.13;3.70;;;15.80;57.00;;;;;;5026511;28;20198;-74
2023/05/13 05:59:56;;;;;;;4.60;3.40;;;15.80;57.20;;;;;;5024339;28;20278;-73
2023/05/13 06:02:22;;;;;;;5.00;4.10;;;15.90;59.00;;;;;;5027172;28;20195;-74
2023/05/13 06:04:47;;;;;;;4.43;4.03;;;15.90;57.50;;;;;;5026873;28;20202;-75
2023/05/13 06:07:13;;;;;;;9.00;4.13;;;16.00;56.70;;;;;;5024399;28;20226;-72
2023/05/13 06:09:39;;;;;;;3.77;3.00;;;16.00;56.70;;;;;;5026027;28;20295;-73
2023/05/13 06:12:05;;;;;;;6.37;4.83;;;16.10;56.60;;;;;;5026113;28;20196;-73
2023/05/13 06:14:30;;;;;;;8.60;4.00;;;16.30;57.50;;;;;;5024511;28;20257;-73
2023/05/13 06:16:56;;;;;;;6.40;3.30;;;16.30;58.50;;;;;;5030750;28;20226;-73
2023/05/13 06:19:21;;;;;;;8.57;3.27;;;16.40;55.90;;;;;;5023453;28;20210;-73
2023/05/13 06:21:47;;;;;;;6.13;3.47;;;16.40;55.70;;;;;;5026670;28;20665;-73
2023/05/13 06:24:13;;;;;;;6.77;3.53;;;16.60;55.70;;;;;;5026525;28;20196;-73
2023/05/13 06:26:38;;;;;;;3.43;2.63;;;16.60;55.50;;;;;;5025375;28;20207;-73
2023/05/13 06:29:04;;;;;;;5.07;3.33;;;16.60;54.90;;;;;;5025493;28;20242;-74
2023/05/13 06:31:29;;;;;;;5.00;3.10;;;16.70;54.60;;;;;;5026328;28;20195;-74
2023/05/13 06:33:55;;;;;;;7.80;3.60;;;16.70;55.20;;;;;;5026151;28;20298;-72
2023/05/13 06:36:20;;;;;;;5.23;3.07;;;16.70;54.30;;;;;;5026190;28;20681;-73
2023/05/13 06:38:46;;;;;;;3.73;2.90;;;16.70;54.90;;;;;;5021213;28;20287;-74
2023/05/13 06:41:11;;;;;;;6.57;3.97;;;16.80;54.60;;;;;;5024569;28;20207;-74
2023/05/13 06:43:37;;;;;;;3.17;2.87;;;16.90;54.30;;;;;;5026867;28;20206;-74
2023/05/13 06:46:03;;;;;;;3.93;3.10;;;16.90;53.80;;;;;;5026560;28;20795;-73
2023/05/13 06:48:28;;;;;;;4.77;3.37;;;16.90;54.40;;;;;;5026694;28;20253;-74
2023/05/13 06:50:54;;;;;;;5.50;3.73;;;17.00;53.10;;;;;;5027257;28;20214;-74
2023/05/13 06:53:20;;;;;;;3.70;2.97;;;17.10;53.70;;;;;;5024575;28;20231;-77
2023/05/13 06:55:45;;;;;;;3.20;2.90;;;17.10;53.00;;;;;;5026031;28;20196;-74
2023/05/13 06:58:10;;;;;;;9.13;3.23;;;17.20;53.10;;;;;;5025338;28;20295;-74
2023/05/13 07:00:38;;;;;;;3.33;2.77;;;17.30;54.50;;;;;;5025547;28;20195;-74
2023/05/13 07:03:04;;;;;;;3.27;2.97;;;17.30;53.80;;;;;;5028055;28;20203;-72
2023/05/13 07:05:30;;;;;;;3.47;2.90;;;17.50;51.70;;;;;;5025302;28;20201;-73
2023/05/13 07:07:56;;;;;;;6.60;3.20;;;17.50;51.50;;;;;;5023964;28;20213;-74
2023/05/13 07:10:21;;;;;;;4.53;3.10;;;17.60;53.10;;;;;;5026200;28;20812;-74
2023/05/13 07:12:47;;;;;;;4.73;3.83;;;17.60;52.80;;;;;;5027510;28;20727;-74
2023/05/13 07:15:12;;;;;;;4.90;2.97;;;17.60;52.30;;;;;;5026380;28;20496;-74
2023/05/13 07:17:38;;;;;;;4.87;3.30;;;17.60;53.00;;;;;;5025957;28;20571;-74
2023/05/13 07:20:05;;;;;;;2.90;2.53;;;17.80;52.90;;;;;;5025248;28;20196;-74
2023/05/13 07:22:30;;;;;;;9.33;3.17;;;17.70;51.60;;;;;;5024208;28;20660;-74
2023/05/13 07:24:56;;;;;;;7.47;3.30;;;17.80;50.30;;;;;;5025254;28;20199;-73
2023/05/13 07:27:21;;;;;;;4.27;2.40;;;17.90;49.90;;;;;;5024694;28;20689;-74
2023/05/13 07:29:47;;;;;;;5.63;2.90;;;17.80;50.20;;;;;;5025418;28;21117;-74
2023/05/13 07:32:12;;;;;;;5.13;3.10;;;17.90;51.50;;;;;;5028662;28;20613;-73
2023/05/13 07:34:38;;;;;;;3.97;2.23;;;18.00;50.50;;;;;;5021064;28;20205;-74
2023/05/13 07:37:04;;;;;;;4.90;3.00;;;18.10;51.50;;;;;;5027321;28;20313;-74
2023/05/13 07:39:30;;;;;;;5.30;3.10;;;18.30;51.20;;;;;;5029247;28;20205;-73
2023/05/13 07:41:55;;;;;;;8.70;2.53;;;18.40;48.00;;;;;;5027915;28;20205;-73
2023/05/13 07:44:21;;;;;;;3.77;2.30;;;18.40;46.90;;;;;;5029613;28;20206;-74
2023/05/13 07:46:47;;;;;;;3.67;2.60;;;18.30;45.40;;;;;;5029551;28;20605;-74
2023/05/13 07:49:13;;;;;;;8.50;3.70;;;18.30;45.40;;;;;;5027321;28;20193;-73
2023/05/13 07:51:38;;;;;;;3.47;2.70;;;18.30;47.00;;;;;;5029690;28;20662;-74
2023/05/13 07:54:04;;;;;;;3.23;2.50;;;18.40;46.50;;;;;;5029249;28;20202;-74
2023/05/13 07:56:29;;;;;;;4.97;2.83;;;18.30;46.60;;;;;;5028174;28;20201;-73
2023/05/13 07:58:55;;;;;;;6.33;3.63;;;18.30;47.10;;;;;;5027916;28;20232;-74
2023/05/13 08:01:21;;;;;;;4.00;2.83;;;18.40;46.70;;;;;;5027024;28;20192;-74
2023/05/13 08:03:46;;;;;;;4.93;2.90;;;18.60;44.00;;;;;;5029120;28;20208;-73
2023/05/13 08:06:12;;;;;;;3.17;2.50;;;18.70;45.40;;;;;;5031862;28;20220;-86
2023/05/13 08:08:37;;;;;;;6.20;3.00;;;18.90;44.60;;;;;;5029609;28;20199;-86
2023/05/13 08:11:03;;;;;;;3.23;2.40;;;18.80;43.70;;;;;;5038345;28;20257;-86
2023/05/13 08:13:28;;;;;;;4.87;2.57;;;18.90;44.00;;;;;;5033368;28;20529;-86
2023/05/13 08:15:54;;;;;;;4.50;2.53;;;18.90;45.20;;;;;;5029075;28;20189;-85
2023/05/13 08:18:20;;;;;;;3.80;2.40;;;18.90;45.10;;;;;;5035352;28;20204;-86
2023/05/13 08:20:45;;;;;;;3.67;3.37;;;18.90;44.50;;;;;;5032153;28;20201;-85
2023/05/13 08:23:11;;;;;;;4.37;3.10;;;19.00;45.50;;;;;;5036191;28;20875;-86
2023/05/13 08:25:36;;;;;;;4.80;3.33;;;19.00;45.30;;;;;;5028615;28;20555;-85
2023/05/13 08:28:02;;;;;;;4.07;3.63;;;18.90;45.70;;;;;;5029480;28;20207;-85
2023/05/13 08:30:28;;;;;;;4.93;2.90;;;19.00;46.70;;;;;;5033606;28;20187;-84
2023/05/13 08:32:53;;;;;;;7.67;3.70;;;19.20;46.70;;;;;;5038744;28;20706;-86
2023/05/13 08:35:19;;;;;;;3.30;3.00;;;19.10;47.00;;;;;;5034109;28;20200;-85
2023/05/13 08:37:44;;;;;;;7.87;2.60;;;19.10;46.50;;;;;;5033767;28;20216;-82
2023/05/13 08:40:10;;;;;;;4.50;3.30;;;19.10;47.30;;;;;;5030511;28;20853;-85
2023/05/13 08:42:38;;;;;;;5.33;2.97;;;19.00;47.00;;;;;;5023347;28;20202;-84
2023/05/13 08:45:06;;;;;;;3.23;2.93;;;19.10;47.50;;;;;;5030112;28;20211;-79
2023/05/13 08:47:51;;;;;;;5.60;2.90;;;19.10;47.40;;;;;;5035541;28;20210;-83
2023/05/13 08:50:18;;;;;;;3.77;2.83;;;19.20;47.90;;;;;;5031211;28;20882;-83
2023/05/13 08:52:44;;;;;;;5.67;2.50;;;19.30;47.70;;;;;;5038611;28;20687;-84
2023/05/13 08:55:10;;;;;;;3.33;3.03;;;19.40;46.90;;;;;;5020151;28;20198;-80
2023/05/13 08:57:35;;;;;;;4.53;2.60;;;19.40;47.60;;;;;;5029656;28;20939;-80
2023/05/13 09:00:03;;;;;;;3.60;3.10;;;19.50;48.50;;;;;;5038996;28;20203;-80
2023/05/13 09:02:29;;;;;;;4.73;3.00;;;19.50;47.90;;;;;;5027854;28;20230;-83
2023/05/13 09:04:58;;;;;;;3.17;2.73;;;19.70;47.90;;;;;;5020295;28;20236;-86
2023/05/13 09:07:29;;;;;;;4.33;2.50;;;19.90;48.10;;;;;;5025014;28;20208;-82
2023/05/13 09:09:55;;;;;;;3.10;2.90;;;19.80;47.40;;;;;;5021431;28;20251;-74
2023/05/13 09:12:43;;;;;;;3.40;3.10;;;19.60;47.70;;;;;;5017383;28;20861;-77
2023/05/13 09:15:10;;;;;;;4.43;2.90;;;19.70;47.80;;;;;;5021937;28;20208;-77
2023/05/13 09:17:38;;;;;;;3.33;3.03;;;19.70;47.80;;;;;;5024939;28;20242;-78
2023/05/13 09:20:10;;;;;;;6.73;2.90;;;19.80;48.60;;;;;;5025524;28;20687;-76
2023/05/13 09:22:38;;;;;;;5.37;2.60;;;20.00;47.80;;;;;;5026509;28;20214;-76
2023/05/13 09:25:04;;;;;;;4.47;2.43;;;20.00;47.90;;;;;;5024598;28;20405;-75
2023/05/13 09:27:37;;;;;;;3.20;2.40;;;20.10;45.40;;;;;;5031065;28;20221;-75
2023/05/13 09:30:03;;;;;;;3.73;2.90;;;20.00;45.10;;;;;;5025011;28;20799;-83
2023/05/13 09:32:29;;;;;;;5.63;2.90;;;20.10;45.20;;;;;;5036988;28;20552;-81
2023/05/13 09:34:55;;;;;;;2.80;2.57;;;20.10;45.00;;;;;;5025683;28;20221;-80
2023/05/13 09:37:23;;;;;;;3.50;3.20;;;20.10;45.30;;;;;;5027937;28;20203;-77
2023/05/13 09:39:51;;;;;;;3.20;3.00;;;20.20;45.10;;;;;;5028897;28;20203;-78
2023/05/13 09:42:17;;;;;;;5.37;3.13;;;20.40;45.90;;;;;;5027395;28;20297;-79
2023/05/13 09:44:44;;;;;;;3.87;2.43;;;20.50;46.50;;;;;;5020688;28;20688;-81
2023/05/13 09:47:12;;;;;;;2.70;2.50;;;20.60;43.80;;;;;;5028265;28;20223;-80
2023/05/13 09:49:39;;;;;;;7.87;3.90;;;20.60;45.40;;;;;;5023604;28;20455;-81
2023/05/13 09:52:10;;;;;;;3.23;2.93;;;20.50;46.50;;;;;;5016943;28;20198;-83
2023/05/13 09:54:38;;;;;;;4.07;2.80;;;20.50;45.90;;;;;;5023032;28;20686;-81
2023/05/13 09:57:04;;;;;;;4.37;2.40;;;20.70;44.90;;;;;;5020027;28;20202;-77
2023/05/13 09:59:34;;;;;;;3.10;2.80;;;20.90;43.60;;;;;;5028599;28;20212;-77
2023/05/13 10:02:07;;;;;;;3.30;2.40;;;21.00;43.90;;;;;;5024885;28;20696;-77
2023/05/13 10:04:33;;;;;;;2.33;2.07;;;21.10;40.70;;;;;;5027819;28;20301;-76
2023/05/13 10:07:02;;;;;;;5.13;2.70;;;21.10;40.20;;;;;;5012248;28;20217;-77
2023/05/13 10:09:31;;;;;;;3.67;2.80;;;21.00;41.30;;;;;;5023941;28;20197;-77
2023/05/13 10:11:58;;;;;;;2.60;2.30;;;20.90;40.00;;;;;;5021725;28;20203;-77
2023/05/13 10:14:24;;;;;;;3.47;2.30;;;21.00;39.40;;;;;;5025867;28;20234;-78
2023/05/13 10:16:50;;;;;;;6.93;2.80;;;20.90;40.60;;;;;;5026295;28;20253;-78
2023/05/13 10:19:18;;;;;;;5.00;2.30;;;20.90;40.30;;;;;;5026410;28;20209;-75
2023/05/13 10:21:44;;;;;;;4.40;2.33;;;21.00;39.80;;;;;;5021770;28;20206;-73
2023/05/13 10:24:10;;;;;;;2.50;2.07;;;21.10;39.30;;;;;;5018347;28;20741;-74
2023/05/13 10:26:36;;;;;;;2.40;2.03;;;21.20;41.30;;;;;;5020079;28;20680;-75
2023/05/13 10:29:02;;;;;;;4.63;2.40;;;21.30;39.10;;;;;;5022240;28;20249;-74
2023/05/13 10:31:29;;;;;;;2.90;1.90;;;21.30;38.70;;;;;;5023849;28;20213;-75
2023/05/13 10:33:54;;;;;;;3.00;2.70;;;21.50;41.80;;;;;;5019646;28;20248;-75
2023/05/13 10:36:45;;;;;;;3.13;2.63;;;21.60;38.30;;;;;;5023146;28;20202;-76
2023/05/13 10:39:46;;;;;;;5.70;2.40;;;21.60;40.80;;;;;;5018078;28;20299;-75
2023/05/13 10:42:41;;;;;;;2.70;2.50;;;21.70;37.80;;;;;;5023515;28;20657;-75
2023/05/13 10:45:10;;;;;;;2.43;2.17;;;21.50;39.20;;;;;;5017936;28;20242;-80
2023/05/13 10:47:36;;;;;;;2.47;2.30;;;21.30;39.50;;;;;;5023416;28;20213;-82
2023/05/13 10:50:24;;;;;;;3.93;2.23;;;21.40;39.00;;;;;;5028516;28;20210;-82
2023/05/13 10:53:27;;;;;;;4.90;2.60;;;21.50;39.40;;;;;;5022591;28;20238;-81
2023/05/13 10:55:58;;;;;;;3.10;2.20;;;21.60;37.90;;;;;;5023578;28;20584;-81
2023/05/13 10:58:29;;;;;;;2.50;2.30;;;21.40;37.70;;;;;;5019450;28;20203;-82
2023/05/13 11:01:30;;;;;;;3.83;3.07;;;21.60;40.10;;;;;;5022803;28;20210;-80
2023/05/13 11:03:58;;;;;;;2.60;2.40;;;21.80;38.20;;;;;;5019310;28;20204;-83
2023/05/13 11:06:36;;;;;;;2.53;2.30;;;21.80;37.70;;;;;;5022091;28;20234;-85
2023/05/13 11:09:05;;;;;;;2.53;2.33;;;21.90;37.40;;;;;;5022704;28;20293;-78
2023/05/13 11:11:32;;;;;;;6.33;2.23;;;22.00;37.90;;;;;;5029929;28;20746;-81
2023/05/13 11:14:14;;;;;;;5.73;2.70;;;22.00;38.20;;;;;;5028125;28;20281;-79
2023/05/13 11:16:45;;;;;;;2.50;2.03;;;22.00;40.20;;;;;;5035075;28;20218;-82
2023/05/13 11:19:28;;;;;;;3.23;2.50;;;22.30;39.00;;;;;;5027641;28;20695;-82
2023/05/13 11:22:06;;;;;;;6.27;3.00;;;22.40;38.80;;;;;;5020641;28;20716;-83
2023/05/13 11:24:32;;;;;;;5.93;2.47;;;22.70;38.00;;;;;;5029132;28;20757;-82
2023/05/13 11:27:18;;;;;;;2.03;1.83;;;23.10;35.60;;;;;;5029171;28;20215;-81
2023/05/13 11:29:49;;;;;;;4.83;2.40;;;22.90;35.40;;;;;;5023765;28;20230;-82
2023/05/13 11:32:34;;;;;;;2.87;2.17;;;23.20;34.50;;;;;;5033746;28;20264;-79
2023/05/13 11:35:00;;;;;;;3.80;2.00;;;23.40;36.10;;;;;;5025630;28;20684;-79
2023/05/13 11:37:26;;;;;;;7.22;4.20;;;23.30;35.70;;;;;;5029262;28;20207;-83
2023/05/13 11:39:51;;;;;;;4.10;2.10;;;23.20;36.60;;;;;;5022253;28;20669;-79
2023/05/13 11:42:17;;;;;;;2.92;2.25;;;23.60;36.10;;;;;;5021495;28;20198;-81
2023/05/13 11:44:45;;;;;;;4.25;2.65;;;23.80;36.20;;;;;;5024253;28;20207;-80
2023/05/13 11:47:31;;;;;;;2.13;1.90;;;23.60;35.90;;;;;;5021593;28;20963;-82
2023/05/13 11:49:57;;;;;;;2.67;2.47;;;24.20;35.40;;;;;;5021767;28;20282;-81
2023/05/13 11:52:23;;;;;;;4.10;3.13;;;24.00;36.60;;;;;;5026580;28;20308;-81
2023/05/13 11:54:55;;;;;;;2.63;2.42;;;24.10;37.30;;;;;;5024447;28;20309;-79
2023/05/13 11:57:36;;;;;;;8.10;2.85;;;24.20;36.60;;;;;;5023997;28;20209;-81
2023/05/13 12:00:09;;;;;;;2.80;2.33;;;24.10;36.30;;;;;;5021405;28;20218;-80
2023/05/13 12:02:37;;;;;;;2.75;2.28;;;24.40;36.70;;;;;;5021581;28;20283;-81
2023/05/13 12:05:04;;;;;;;4.55;2.80;;;24.10;36.30;;;;;;5022138;28;20225;-80
2023/05/13 12:07:30;;;;;;;2.53;2.33;;;24.20;35.00;;;;;;5024309;28;20310;-80
2023/05/13 12:09:59;;;;;;;2.08;1.98;;;24.10;35.10;;;;;;5029493;28;20282;-79
2023/05/13 12:12:26;;;;;;;6.15;3.55;;;24.40;35.20;;;;;;5020540;28;20634;-80
2023/05/13 12:14:54;;;;;;;4.82;2.50;;;24.40;35.20;;;;;;5019159;28;20915;-80
2023/05/13 12:17:20;;;;;;;2.30;1.92;;;24.10;35.70;;;;;;5021724;28;20261;-78
2023/05/13 12:20:11;;;;;;;10.43;3.45;;;23.90;33.70;;;;;;5022831;28;20204;-79
2023/05/13 12:22:58;;;;;;;4.18;2.40;;;24.20;35.50;;;;;;5028594;28;20225;-81
2023/05/13 12:25:34;;;;;;;3.83;2.05;;;24.40;34.10;;;;;;5019669;28;20222;-83
2023/05/13 12:28:18;;;;;;;1.90;1.80;;;24.50;36.60;;;;;;5028249;28;20253;-82
2023/05/13 12:30:55;;;;;;;2.72;2.13;;;24.50;33.70;;;;;;5018380;28;20206;-82
2023/05/13 12:33:26;;;;;;;4.20;2.75;;;24.80;35.20;;;;;;5018640;28;20632;-81
2023/05/13 12:36:19;;;;;;;5.93;2.40;;;24.20;33.30;;;;;;5019680;28;20205;-83
2023/05/13 12:38:56;;;;;;;9.30;2.22;;;24.00;34.40;;;;;;5018893;28;20247;-81
2023/05/13 12:41:24;;;;;;;4.55;2.63;;;24.50;33.50;;;;;;5024054;28;20208;-82
2023/05/13 12:44:00;;;;;;;4.72;2.20;;;24.70;33.20;;;;;;5021145;28;20210;-80
2023/05/13 12:46:29;;;;;;;2.00;1.90;;;24.60;33.70;;;;;;5019037;28;20373;-80
2023/05/13 12:48:59;;;;;;;2.78;2.58;;;24.60;33.90;;;;;;5020470;28;20197;-82